Terminal Aerodrome Forecast
Issued by NWS

Home | Current Version | Previous Version | Text Only | Print | Product List | Glossary On
Versions: 1 2 3 4 5 6 7 8 9 10 11 12 13 14 15 16 17 18
899
FTUS45 KRIW 241736
TAFBPI
TAF
KBPI 241736Z 2418/2518 03008KT P6SM SCT040 BKN060
      TEMPO 2418/2420 VRB10G20KT -SHRA BKN040
     FM242300 10010KT 6SM -SN OVC018
     FM250200 VRB05KT P6SM VCSH OVC025
     FM251200 VRB04KT P6SM VCSH BKN035=

USA.gov is the U.S. government's official web portal to all federal, state and local government web resources and services.